Flight Track Log - Related Links

Times and Time Zones

All times are in EDT time to prevent confusion due to time zone crossing. See the N152CF flight status page for this flight to view local times or setup timezone preferences in your user account.

Time Position Orientation Groundspeed Altitude Reporting Facility
EDT Latitude Longitude Course Direction KTS MPH feet Rate Location/Type
Thu 04:51:46 PM 33.4522 -88.5669 80° East 87 100 2,100  Level Memphis Center
Thu 04:52:29 PM 33.4625 -88.5494 55° Northeast 91 105 2,600 635 Climbing Memphis Center
Thu 04:53:30 PM 33.4619 -88.5194 91° East 88 101 3,200 750 Climbing Memphis Center
Thu 04:53:57 PM 33.4619 -88.5122 90° East 133 153 3,700 800 Climbing Memphis Center
Thu 04:54:30 PM 33.4575 -88.4947 107° East 84 97 4,000 800 Climbing Memphis Center
Thu 04:54:57 PM 33.4550 -88.4825 104° East 110 127 4,500 787 Climbing Memphis Center
Thu 04:55:31 PM 33.4508 -88.4650 106° East 86 99 4,800 800 Climbing Memphis Center
Thu 04:55:57 PM 33.4506 -88.4550 92° East 92 106 5,300 776 Climbing Memphis Center
Thu 04:56:56 PM 33.4458 -88.4228 100° East 92 106 5,900 625 Climbing Memphis Center
Thu 04:57:33 PM 33.4478 -88.4028 83° East 98 113 6,300 680 Climbing Memphis Center
Thu 04:58:33 PM 33.4492 -88.3656 87° East 103 119 7,000 347 Climbing Memphis Center
Thu 04:59:34 PM 33.4464 -88.3206 94° East 138 159 7,000  Level Memphis Center
Thu 05:00:35 PM 33.4622 -88.2756 67° East 151 174 7,000 47 Level Memphis Center
Thu 05:01:42 PM 33.4886 -88.2275 57° Northeast 150 173 7,100 50 Climbing Memphis Center
Thu 05:02:36 PM 33.5131 -88.1922 50° Northeast 151 174 7,100 -52 Level Memphis Center
Thu 05:03:37 PM 33.5394 -88.1517 52° Northeast 153 176 7,000 -49 Descending Memphis Center
Thu 05:04:38 PM 33.5617 -88.1111 57° Northeast 151 174 7,000  Level Memphis Center
Thu 05:05:39 PM 33.5858 -88.0656 58° Northeast 152 175 7,000  Level Memphis Center
Thu 05:07:03 PM 33.6181 -88.0047 58° Northeast 152 175 7,000  Level Memphis Center
Thu 05:08:04 PM 33.6383 -87.9619 60° Northeast 151 174 7,000  Level Memphis Center
Thu 05:08:59 PM 33.6583 -87.9239 58° Northeast 153 176 7,000  Level Memphis Center
Thu 05:10:05 PM 33.6844 -87.8733 58° Northeast 153 176 7,000  Level Memphis Center
Thu 05:11:06 PM 33.7064 -87.8278 60° Northeast 154 177 7,000  Level Memphis Center
Thu 05:11:42 PM 33.7186 -87.8022 60° Northeast 154 177 7,000 32 Level Memphis Center
Thu 05:14:12 PM 33.7733 -87.6975 58° Northeast 149 171 7,100 27 Climbing Atlanta Center
Thu 05:15:25 PM 33.8019 -87.6486 55° Northeast 151 174 7,100  Level Atlanta Center
Thu 05:16:19 PM 33.8217 -87.6094 59° Northeast 151 174 7,100  Level Atlanta Center
Thu 05:17:20 PM 33.8439 -87.5628 60° Northeast 153 176 7,100  Level Atlanta Center
Thu 05:18:20 PM 33.8661 -87.5211 57° Northeast 149 171 7,100  Level Atlanta Center
Thu 05:19:21 PM 33.8836 -87.4869 58° Northeast 147 169 7,100  Level Atlanta Center
Thu 05:20:16 PM 33.9081 -87.4428 56° Northeast 148 170 7,100  Level Atlanta Center
Thu 05:21:22 PM 33.9322 -87.3961 58° Northeast 151 174 7,100  Level Atlanta Center
Thu 05:22:23 PM 33.9542 -87.3519 59° Northeast 153 176 7,100  Level Atlanta Center
Thu 05:23:18 PM 33.9761 -87.3103 58° Northeast 152 175 7,100 -4 Level Atlanta Center
Thu 05:25:00 PM 34.0044 -87.2398 64° Northeast  Level FlightAware Approximate
Thu 05:32:00 PM 34.1264 -86.9488 58° Northeast  Level FlightAware Approximate
Thu 05:33:00 PM 34.1465 -86.9096 58° Northeast  Level FlightAware Approximate
Thu 05:34:00 PM 34.1667 -86.8704 58° Northeast  Level FlightAware Approximate
Thu 05:35:00 PM 34.1869 -86.8312 58° Northeast  Level FlightAware Approximate
Thu 05:36:00 PM 34.2070 -86.7919 58° Northeast  Level FlightAware Approximate
Thu 05:37:00 PM 34.2271 -86.7527 58° Northeast  Level FlightAware Approximate
Thu 05:38:00 PM 34.2472 -86.7134 58° Northeast  Level FlightAware Approximate
Thu 05:39:00 PM 34.2673 -86.6741 58° Northeast  Level FlightAware Approximate
Thu 05:40:00 PM 34.2874 -86.6348 58° Northeast  Level FlightAware Approximate
Thu 05:41:00 PM 34.3075 -86.5954 58° Northeast  Level FlightAware Approximate
Thu 05:42:00 PM 34.3275 -86.5561 58° Northeast  Level FlightAware Approximate
Thu 05:43:00 PM 34.3476 -86.5167 58° Northeast  Level FlightAware Approximate
Thu 05:44:00 PM 34.3676 -86.4773 58° Northeast  Level FlightAware Approximate
Thu 05:45:00 PM 34.3876 -86.4379 58° Northeast  Level FlightAware Approximate
Thu 05:46:00 PM 34.4076 -86.3984 58° Northeast  Level FlightAware Approximate
Thu 05:47:00 PM 34.4276 -86.3590 58° Northeast  Level FlightAware Approximate
Thu 05:48:00 PM 34.4476 -86.3195 58° Northeast  Level FlightAware Approximate
Thu 05:48:58 PM 34.5203 -86.2019 57° Northeast 160 184 7,000  Level Atlanta Center
Thu 05:49:00 PM 34.4676 -86.2800 58° Northeast  Level FlightAware Approximate
Thu 05:49:58 PM 34.5419 -86.1622 56° Northeast 166 191 7,000  Level Atlanta Center
Thu 05:50:00 PM 34.4875 -86.2405 58° Northeast  Level FlightAware Approximate
Thu 05:50:58 PM 34.5636 -86.1147 61° Northeast 161 185 7,000  Level Atlanta Center
Thu 05:51:00 PM 34.5075 -86.2010 59° Northeast  Level FlightAware Approximate
Thu 05:51:58 PM 34.5872 -86.0725 56° Northeast 156 180 7,000  Level Atlanta Center
Thu 05:52:00 PM 34.5274 -86.1614 59° Northeast  Level FlightAware Approximate
Thu 05:52:58 PM 34.6108 -86.0275 57° Northeast 156 180 7,000  Level Atlanta Center
Thu 05:53:00 PM 34.5473 -86.1218 59° Northeast  Level FlightAware Approximate
Thu 05:53:58 PM 34.6344 -85.9878 54° Northeast 156 180 7,000  Level Atlanta Center
Thu 05:54:00 PM 34.5672 -86.0823 57° Northeast  Level FlightAware Approximate
Thu 05:54:58 PM 34.6561 -85.9453 58° Northeast 151 174 7,000  Level Atlanta Center
Thu 05:55:58 PM 34.6775 -85.9028 59° Northeast 146 168 7,000  Level Atlanta Center
Thu 05:56:58 PM 34.7011 -85.8631 54° Northeast 146 168 7,000  Level Atlanta Center
Thu 05:57:58 PM 34.7206 -85.8228 60° Northeast 140 161 7,000  Level Atlanta Center
Thu 05:58:58 PM 34.7378 -85.7828 62° Northeast 140 161 7,000  Level Atlanta Center

Login

Don't have an account? Register now (free) for customized features, flight alerts, and more!